sensor_id;sensor_type;location;lat;lon;timestamp;temperature;humidity
49222;DHT22;35047;37.588;-122.048;2024-02-26T00:01:10;26.50;55.30
49222;DHT22;35047;37.588;-122.048;2024-02-26T00:03:36;26.40;56.50
49222;DHT22;35047;37.588;-122.048;2024-02-26T00:06:03;26.30;57.20
49222;DHT22;35047;37.588;-122.048;2024-02-26T00:08:29;26.20;57.20
49222;DHT22;35047;37.588;-122.048;2024-02-26T00:10:56;26.10;56.00
49222;DHT22;35047;37.588;-122.048;2024-02-26T00:13:22;25.90;55.00
49222;DHT22;35047;37.588;-122.048;2024-02-26T00:15:49;25.80;55.30
49222;DHT22;35047;37.588;-122.048;2024-02-26T00:18:15;25.70;56.80
49222;DHT22;35047;37.588;-122.048;2024-02-26T00:20:42;25.60;58.80
49222;DHT22;35047;37.588;-122.048;2024-02-26T00:23:09;25.40;59.40
49222;DHT22;35047;37.588;-122.048;2024-02-26T00:25:35;25.30;59.70
49222;DHT22;35047;37.588;-122.048;2024-02-26T00:28:04;25.10;60.80
49222;DHT22;35047;37.588;-122.048;2024-02-26T00:30:31;25.00;61.20
49222;DHT22;35047;37.588;-122.048;2024-02-26T00:32:58;24.80;62.00
49222;DHT22;35047;37.588;-122.048;2024-02-26T00:35:25;24.70;62.30
49222;DHT22;35047;37.588;-122.048;2024-02-26T00:37:51;24.60;63.10
49222;DHT22;35047;37.588;-122.048;2024-02-26T00:40:18;24.50;63.20
49222;DHT22;35047;37.588;-122.048;2024-02-26T00:42:44;24.30;63.40
49222;DHT22;35047;37.588;-122.048;2024-02-26T00:45:12;24.30;63.50
49222;DHT22;35047;37.588;-122.048;2024-02-26T00:47:38;24.10;63.40
49222;DHT22;35047;37.588;-122.048;2024-02-26T00:50:07;24.00;63.60
49222;DHT22;35047;37.588;-122.048;2024-02-26T00:52:34;23.80;63.80
49222;DHT22;35047;37.588;-122.048;2024-02-26T00:55:02;23.70;63.90
49222;DHT22;35047;37.588;-122.048;2024-02-26T00:57:29;23.60;65.00
49222;DHT22;35047;37.588;-122.048;2024-02-26T00:59:55;23.50;65.80
49222;DHT22;35047;37.588;-122.048;2024-02-26T01:02:23;23.30;65.90
49222;DHT22;35047;37.588;-122.048;2024-02-26T01:04:49;23.30;65.90
49222;DHT22;35047;37.588;-122.048;2024-02-26T01:07:16;23.20;66.80
49222;DHT22;35047;37.588;-122.048;2024-02-26T01:09:42;23.10;67.20
49222;DHT22;35047;37.588;-122.048;2024-02-26T01:12:09;22.90;67.40
49222;DHT22;35047;37.588;-122.048;2024-02-26T01:14:37;22.90;67.00
49222;DHT22;35047;37.588;-122.048;2024-02-26T01:17:04;22.80;67.60
49222;DHT22;35047;37.588;-122.048;2024-02-26T01:19:30;22.60;67.60
49222;DHT22;35047;37.588;-122.048;2024-02-26T01:21:57;22.50;68.10
49222;DHT22;35047;37.588;-122.048;2024-02-26T01:24:23;22.50;68.40
49222;DHT22;35047;37.588;-122.048;2024-02-26T01:26:50;22.40;68.90
49222;DHT22;35047;37.588;-122.048;2024-02-26T01:29:16;22.20;68.60
49222;DHT22;35047;37.588;-122.048;2024-02-26T01:31:43;22.10;68.60
49222;DHT22;35047;37.588;-122.048;2024-02-26T01:34:09;22.10;68.70
49222;DHT22;35047;37.588;-122.048;2024-02-26T01:36:36;22.00;69.00
49222;DHT22;35047;37.588;-122.048;2024-02-26T01:39:02;21.90;69.50
49222;DHT22;35047;37.588;-122.048;2024-02-26T01:41:29;21.90;69.40
49222;DHT22;35047;37.588;-122.048;2024-02-26T01:43:56;21.80;69.80
49222;DHT22;35047;37.588;-122.048;2024-02-26T01:46:23;21.70;70.00
49222;DHT22;35047;37.588;-122.048;2024-02-26T01:48:49;21.70;70.00
49222;DHT22;35047;37.588;-122.048;2024-02-26T01:51:17;21.60;69.90
49222;DHT22;35047;37.588;-122.048;2024-02-26T01:53:44;21.40;70.30
49222;DHT22;35047;37.588;-122.048;2024-02-26T01:56:11;21.30;70.30
49222;DHT22;35047;37.588;-122.048;2024-02-26T01:58:38;21.30;70.20
49222;DHT22;35047;37.588;-122.048;2024-02-26T02:01:16;21.20;70.60
49222;DHT22;35047;37.588;-122.048;2024-02-26T02:03:46;21.10;70.60
49222;DHT22;35047;37.588;-122.048;2024-02-26T02:06:13;21.00;70.70
49222;DHT22;35047;37.588;-122.048;2024-02-26T02:08:39;21.00;71.10
49222;DHT22;35047;37.588;-122.048;2024-02-26T02:11:06;20.90;71.40
49222;DHT22;35047;37.588;-122.048;2024-02-26T02:13:34;20.80;71.40
49222;DHT22;35047;37.588;-122.048;2024-02-26T02:16:00;20.80;71.60
49222;DHT22;35047;37.588;-122.048;2024-02-26T02:18:27;20.70;71.50
49222;DHT22;35047;37.588;-122.048;2024-02-26T02:21:11;20.70;71.60
49222;DHT22;35047;37.588;-122.048;2024-02-26T02:23:38;20.60;71.90
49222;DHT22;35047;37.588;-122.048;2024-02-26T02:26:04;20.50;72.30
49222;DHT22;35047;37.588;-122.048;2024-02-26T02:28:31;20.40;72.80
49222;DHT22;35047;37.588;-122.048;2024-02-26T02:30:58;20.50;72.70
49222;DHT22;35047;37.588;-122.048;2024-02-26T02:33:26;20.40;73.10
49222;DHT22;35047;37.588;-122.048;2024-02-26T02:35:53;20.30;73.20
49222;DHT22;35047;37.588;-122.048;2024-02-26T02:38:21;20.30;73.40
49222;DHT22;35047;37.588;-122.048;2024-02-26T02:40:49;20.20;73.40
49222;DHT22;35047;37.588;-122.048;2024-02-26T02:43:18;20.10;73.50
49222;DHT22;35047;37.588;-122.048;2024-02-26T02:45:44;20.10;73.80
49222;DHT22;35047;37.588;-122.048;2024-02-26T02:48:14;20.00;73.70
49222;DHT22;35047;37.588;-122.048;2024-02-26T02:50:40;19.90;73.90
49222;DHT22;35047;37.588;-122.048;2024-02-26T02:53:07;19.90;74.40
49222;DHT22;35047;37.588;-122.048;2024-02-26T02:55:34;19.80;74.40
49222;DHT22;35047;37.588;-122.048;2024-02-26T02:58:00;19.80;75.00
49222;DHT22;35047;37.588;-122.048;2024-02-26T03:00:27;19.70;75.20
49222;DHT22;35047;37.588;-122.048;2024-02-26T03:02:53;19.60;75.20
49222;DHT22;35047;37.588;-122.048;2024-02-26T03:05:20;19.60;75.90
49222;DHT22;35047;37.588;-122.048;2024-02-26T03:07:46;19.50;76.20
49222;DHT22;35047;37.588;-122.048;2024-02-26T03:10:13;19.50;76.60
49222;DHT22;35047;37.588;-122.048;2024-02-26T03:12:39;19.40;77.20
49222;DHT22;35047;37.588;-122.048;2024-02-26T03:15:06;19.40;77.10
49222;DHT22;35047;37.588;-122.048;2024-02-26T03:17:33;19.40;76.90
49222;DHT22;35047;37.588;-122.048;2024-02-26T03:19:59;19.30;77.40
49222;DHT22;35047;37.588;-122.048;2024-02-26T03:22:26;19.30;77.70
49222;DHT22;35047;37.588;-122.048;2024-02-26T03:24:52;19.30;77.90
49222;DHT22;35047;37.588;-122.048;2024-02-26T03:27:19;19.20;78.10
49222;DHT22;35047;37.588;-122.048;2024-02-26T03:29:45;19.10;78.10
49222;DHT22;35047;37.588;-122.048;2024-02-26T03:32:13;19.10;78.30
49222;DHT22;35047;37.588;-122.048;2024-02-26T03:34:40;19.10;78.40
49222;DHT22;35047;37.588;-122.048;2024-02-26T03:37:07;19.00;78.70
49222;DHT22;35047;37.588;-122.048;2024-02-26T03:39:36;19.00;78.70
49222;DHT22;35047;37.588;-122.048;2024-02-26T03:42:03;19.00;79.00
49222;DHT22;35047;37.588;-122.048;2024-02-26T03:44:29;19.00;79.10
49222;DHT22;35047;37.588;-122.048;2024-02-26T03:46:56;18.90;79.20
49222;DHT22;35047;37.588;-122.048;2024-02-26T03:49:22;18.90;79.10
49222;DHT22;35047;37.588;-122.048;2024-02-26T03:51:49;18.80;79.10
49222;DHT22;35047;37.588;-122.048;2024-02-26T03:54:15;18.80;79.20
49222;DHT22;35047;37.588;-122.048;2024-02-26T03:56:42;18.80;79.40
49222;DHT22;35047;37.588;-122.048;2024-02-26T03:59:08;18.70;79.50
49222;DHT22;35047;37.588;-122.048;2024-02-26T04:01:35;18.70;79.30
49222;DHT22;35047;37.588;-122.048;2024-02-26T04:04:01;18.70;79.40
49222;DHT22;35047;37.588;-122.048;2024-02-26T04:06:28;18.70;79.50
49222;DHT22;35047;37.588;-122.048;2024-02-26T04:08:54;18.60;79.50
49222;DHT22;35047;37.588;-122.048;2024-02-26T04:11:21;18.60;79.50
49222;DHT22;35047;37.588;-122.048;2024-02-26T04:13:48;18.60;79.40
49222;DHT22;35047;37.588;-122.048;2024-02-26T04:16:17;18.50;79.50
49222;DHT22;35047;37.588;-122.048;2024-02-26T04:18:44;18.50;79.70
49222;DHT22;35047;37.588;-122.048;2024-02-26T04:21:10;18.50;79.80
49222;DHT22;35047;37.588;-122.048;2024-02-26T04:23:37;18.50;79.90
49222;DHT22;35047;37.588;-122.048;2024-02-26T04:26:04;18.50;80.00
49222;DHT22;35047;37.588;-122.048;2024-02-26T04:28:31;18.40;80.00
49222;DHT22;35047;37.588;-122.048;2024-02-26T04:30:57;18.40;79.90
49222;DHT22;35047;37.588;-122.048;2024-02-26T04:33:24;18.40;80.00
49222;DHT22;35047;37.588;-122.048;2024-02-26T04:35:50;18.40;80.10
49222;DHT22;35047;37.588;-122.048;2024-02-26T04:38:17;18.30;80.20
49222;DHT22;35047;37.588;-122.048;2024-02-26T04:40:43;18.30;80.20
49222;DHT22;35047;37.588;-122.048;2024-02-26T04:43:10;18.30;80.60
49222;DHT22;35047;37.588;-122.048;2024-02-26T04:45:36;18.30;80.20
49222;DHT22;35047;37.588;-122.048;2024-02-26T04:48:03;18.30;80.20
49222;DHT22;35047;37.588;-122.048;2024-02-26T04:50:30;18.20;80.10
49222;DHT22;35047;37.588;-122.048;2024-02-26T04:52:56;18.20;80.00
49222;DHT22;35047;37.588;-122.048;2024-02-26T04:55:22;18.20;80.80
49222;DHT22;35047;37.588;-122.048;2024-02-26T04:57:49;18.20;80.10
49222;DHT22;35047;37.588;-122.048;2024-02-26T05:00:16;18.10;80.10
49222;DHT22;35047;37.588;-122.048;2024-02-26T05:02:42;18.10;79.80
49222;DHT22;35047;37.588;-122.048;2024-02-26T05:05:09;18.10;79.70
49222;DHT22;35047;37.588;-122.048;2024-02-26T05:07:40;18.00;80.10
49222;DHT22;35047;37.588;-122.048;2024-02-26T05:10:08;18.00;80.00
49222;DHT22;35047;37.588;-122.048;2024-02-26T05:12:34;17.90;80.30
49222;DHT22;35047;37.588;-122.048;2024-02-26T05:15:02;17.90;80.40
49222;DHT22;35047;37.588;-122.048;2024-02-26T05:17:29;17.90;80.50
49222;DHT22;35047;37.588;-122.048;2024-02-26T05:19:55;17.90;80.70
49222;DHT22;35047;37.588;-122.048;2024-02-26T05:22:22;17.80;81.10
49222;DHT22;35047;37.588;-122.048;2024-02-26T05:24:48;17.80;81.60
49222;DHT22;35047;37.588;-122.048;2024-02-26T05:27:15;17.80;81.90
49222;DHT22;35047;37.588;-122.048;2024-02-26T05:29:41;17.70;82.00
49222;DHT22;35047;37.588;-122.048;2024-02-26T05:32:08;17.80;82.10
49222;DHT22;35047;37.588;-122.048;2024-02-26T05:34:34;17.80;82.50
49222;DHT22;35047;37.588;-122.048;2024-02-26T05:37:01;17.70;82.80
49222;DHT22;35047;37.588;-122.048;2024-02-26T05:39:27;17.70;83.00
49222;DHT22;35047;37.588;-122.048;2024-02-26T05:41:53;17.70;83.10
49222;DHT22;35047;37.588;-122.048;2024-02-26T05:44:22;17.70;83.20
49222;DHT22;35047;37.588;-122.048;2024-02-26T05:46:49;17.70;83.40
49222;DHT22;35047;37.588;-122.048;2024-02-26T05:49:15;17.70;83.50
49222;DHT22;35047;37.588;-122.048;2024-02-26T05:51:42;17.70;83.50
49222;DHT22;35047;37.588;-122.048;2024-02-26T05:54:08;17.70;83.60
49222;DHT22;35047;37.588;-122.048;2024-02-26T05:56:36;17.70;83.70
49222;DHT22;35047;37.588;-122.048;2024-02-26T05:59:03;17.70;83.90
49222;DHT22;35047;37.588;-122.048;2024-02-26T06:01:30;17.70;84.10
49222;DHT22;35047;37.588;-122.048;2024-02-26T06:03:56;17.70;84.20
49222;DHT22;35047;37.588;-122.048;2024-02-26T06:06:23;17.70;83.90
49222;DHT22;35047;37.588;-122.048;2024-02-26T06:08:50;17.70;83.80
49222;DHT22;35047;37.588;-122.048;2024-02-26T06:11:16;17.70;83.80
49222;DHT22;35047;37.588;-122.048;2024-02-26T06:13:44;17.70;83.90
49222;DHT22;35047;37.588;-122.048;2024-02-26T06:16:10;17.70;84.20
49222;DHT22;35047;37.588;-122.048;2024-02-26T06:18:37;17.70;84.30
49222;DHT22;35047;37.588;-122.048;2024-02-26T06:21:04;17.80;84.60
49222;DHT22;35047;37.588;-122.048;2024-02-26T06:23:30;17.70;84.80
49222;DHT22;35047;37.588;-122.048;2024-02-26T06:25:57;17.70;84.70
49222;DHT22;35047;37.588;-122.048;2024-02-26T06:28:23;17.70;84.80
49222;DHT22;35047;37.588;-122.048;2024-02-26T06:30:50;17.70;84.70
49222;DHT22;35047;37.588;-122.048;2024-02-26T06:33:18;17.70;84.80
49222;DHT22;35047;37.588;-122.048;2024-02-26T06:35:45;17.70;85.00
49222;DHT22;35047;37.588;-122.048;2024-02-26T06:38:11;17.80;85.40
49222;DHT22;35047;37.588;-122.048;2024-02-26T06:40:39;17.80;85.40
49222;DHT22;35047;37.588;-122.048;2024-02-26T06:43:06;17.80;85.50
49222;DHT22;35047;37.588;-122.048;2024-02-26T06:45:32;17.80;85.40
49222;DHT22;35047;37.588;-122.048;2024-02-26T06:47:59;17.70;85.60
49222;DHT22;35047;37.588;-122.048;2024-02-26T06:50:26;17.70;85.70
49222;DHT22;35047;37.588;-122.048;2024-02-26T06:52:52;17.70;85.90
49222;DHT22;35047;37.588;-122.048;2024-02-26T06:55:19;17.70;86.10
49222;DHT22;35047;37.588;-122.048;2024-02-26T06:57:45;17.60;85.90
49222;DHT22;35047;37.588;-122.048;2024-02-26T07:00:12;17.60;86.00
49222;DHT22;35047;37.588;-122.048;2024-02-26T07:02:42;17.70;85.90
49222;DHT22;35047;37.588;-122.048;2024-02-26T07:05:08;17.70;86.00
49222;DHT22;35047;37.588;-122.048;2024-02-26T07:07:38;17.70;86.10
49222;DHT22;35047;37.588;-122.048;2024-02-26T07:10:05;17.70;86.20
49222;DHT22;35047;37.588;-122.048;2024-02-26T07:12:32;17.70;86.20
49222;DHT22;35047;37.588;-122.048;2024-02-26T07:14:59;17.70;86.40
49222;DHT22;35047;37.588;-122.048;2024-02-26T07:17:25;17.70;86.20
49222;DHT22;35047;37.588;-122.048;2024-02-26T07:19:52;17.70;86.20
49222;DHT22;35047;37.588;-122.048;2024-02-26T07:22:18;17.80;86.40
49222;DHT22;35047;37.588;-122.048;2024-02-26T07:24:45;17.80;86.20
49222;DHT22;35047;37.588;-122.048;2024-02-26T07:27:12;17.90;85.90
49222;DHT22;35047;37.588;-122.048;2024-02-26T07:29:38;17.90;85.70
49222;DHT22;35047;37.588;-122.048;2024-02-26T07:32:05;18.00;85.40
49222;DHT22;35047;37.588;-122.048;2024-02-26T07:34:32;18.00;85.20
49222;DHT22;35047;37.588;-122.048;2024-02-26T07:36:58;18.00;84.90
49222;DHT22;35047;37.588;-122.048;2024-02-26T07:39:25;18.00;84.80
49222;DHT22;35047;37.588;-122.048;2024-02-26T07:41:51;18.00;84.70
49222;DHT22;35047;37.588;-122.048;2024-02-26T07:44:19;18.00;84.80
49222;DHT22;35047;37.588;-122.048;2024-02-26T07:46:45;18.00;84.80
49222;DHT22;35047;37.588;-122.048;2024-02-26T07:49:12;17.90;84.70
49222;DHT22;35047;37.588;-122.048;2024-02-26T07:51:38;17.80;84.90
49222;DHT22;35047;37.588;-122.048;2024-02-26T07:54:05;17.80;85.00
49222;DHT22;35047;37.588;-122.048;2024-02-26T07:56:32;17.80;85.30
49222;DHT22;35047;37.588;-122.048;2024-02-26T07:58:58;17.80;85.50
49222;DHT22;35047;37.588;-122.048;2024-02-26T08:01:25;17.80;85.50
49222;DHT22;35047;37.588;-122.048;2024-02-26T08:03:53;17.80;85.60
49222;DHT22;35047;37.588;-122.048;2024-02-26T08:06:20;17.80;85.60
49222;DHT22;35047;37.588;-122.048;2024-02-26T08:08:46;17.70;85.50
49222;DHT22;35047;37.588;-122.048;2024-02-26T08:11:15;17.70;85.40
49222;DHT22;35047;37.588;-122.048;2024-02-26T08:13:42;17.70;85.40
49222;DHT22;35047;37.588;-122.048;2024-02-26T08:16:08;17.70;85.40
49222;DHT22;35047;37.588;-122.048;2024-02-26T08:18:35;17.60;85.40
49222;DHT22;35047;37.588;-122.048;2024-02-26T08:21:01;17.70;85.20
49222;DHT22;35047;37.588;-122.048;2024-02-26T08:23:28;17.60;85.20
49222;DHT22;35047;37.588;-122.048;2024-02-26T08:25:55;17.60;85.20
49222;DHT22;35047;37.588;-122.048;2024-02-26T08:28:21;17.60;85.00
49222;DHT22;35047;37.588;-122.048;2024-02-26T08:30:48;17.50;85.00
49222;DHT22;35047;37.588;-122.048;2024-02-26T08:33:14;17.40;84.90
49222;DHT22;35047;37.588;-122.048;2024-02-26T08:35:41;17.40;85.20
49222;DHT22;35047;37.588;-122.048;2024-02-26T08:38:07;17.40;85.20
49222;DHT22;35047;37.588;-122.048;2024-02-26T08:40:34;17.40;85.00
49222;DHT22;35047;37.588;-122.048;2024-02-26T08:43:01;17.30;84.70
49222;DHT22;35047;37.588;-122.048;2024-02-26T08:45:27;17.30;84.80
49222;DHT22;35047;37.588;-122.048;2024-02-26T08:47:54;17.20;84.90
49222;DHT22;35047;37.588;-122.048;2024-02-26T08:50:20;17.20;84.90
49222;DHT22;35047;37.588;-122.048;2024-02-26T08:52:47;17.20;85.10
49222;DHT22;35047;37.588;-122.048;2024-02-26T08:55:17;17.20;85.30
49222;DHT22;35047;37.588;-122.048;2024-02-26T08:57:43;17.10;86.10
49222;DHT22;35047;37.588;-122.048;2024-02-26T09:00:10;17.10;85.30
49222;DHT22;35047;37.588;-122.048;2024-02-26T09:02:37;17.10;85.10
49222;DHT22;35047;37.588;-122.048;2024-02-26T09:05:08;17.00;85.00
49222;DHT22;35047;37.588;-122.048;2024-02-26T09:07:35;16.90;85.10
49222;DHT22;35047;37.588;-122.048;2024-02-26T09:10:02;16.90;85.50
49222;DHT22;35047;37.588;-122.048;2024-02-26T09:12:28;16.90;85.70
49222;DHT22;35047;37.588;-122.048;2024-02-26T09:14:55;16.90;85.60
49222;DHT22;35047;37.588;-122.048;2024-02-26T09:17:23;16.80;85.50
49222;DHT22;35047;37.588;-122.048;2024-02-26T09:19:50;16.70;85.50
49222;DHT22;35047;37.588;-122.048;2024-02-26T09:22:16;16.70;85.80
49222;DHT22;35047;37.588;-122.048;2024-02-26T09:24:43;16.70;85.70
49222;DHT22;35047;37.588;-122.048;2024-02-26T09:27:09;16.70;85.60
49222;DHT22;35047;37.588;-122.048;2024-02-26T09:29:36;16.70;85.90
49222;DHT22;35047;37.588;-122.048;2024-02-26T09:32:03;16.60;86.00
49222;DHT22;35047;37.588;-122.048;2024-02-26T09:34:29;16.60;86.20
49222;DHT22;35047;37.588;-122.048;2024-02-26T09:36:56;16.60;86.20
49222;DHT22;35047;37.588;-122.048;2024-02-26T09:39:22;16.60;86.00
49222;DHT22;35047;37.588;-122.048;2024-02-26T09:41:49;16.50;86.00
49222;DHT22;35047;37.588;-122.048;2024-02-26T09:44:21;16.50;85.80
49222;DHT22;35047;37.588;-122.048;2024-02-26T09:46:49;16.50;85.70
49222;DHT22;35047;37.588;-122.048;2024-02-26T09:49:16;16.50;85.80
49222;DHT22;35047;37.588;-122.048;2024-02-26T09:51:43;16.40;85.60
49222;DHT22;35047;37.588;-122.048;2024-02-26T09:54:10;16.40;85.60
49222;DHT22;35047;37.588;-122.048;2024-02-26T09:56:39;16.30;85.70
49222;DHT22;35047;37.588;-122.048;2024-02-26T09:59:13;16.30;85.90
49222;DHT22;35047;37.588;-122.048;2024-02-26T10:01:42;16.30;85.90
49222;DHT22;35047;37.588;-122.048;2024-02-26T10:04:11;16.30;86.00
49222;DHT22;35047;37.588;-122.048;2024-02-26T10:06:38;16.30;86.20
49222;DHT22;35047;37.588;-122.048;2024-02-26T10:09:06;16.20;86.00
49222;DHT22;35047;37.588;-122.048;2024-02-26T10:11:35;16.20;86.00
49222;DHT22;35047;37.588;-122.048;2024-02-26T10:14:04;16.30;86.20
49222;DHT22;35047;37.588;-122.048;2024-02-26T10:16:30;16.20;86.10
49222;DHT22;35047;37.588;-122.048;2024-02-26T10:18:57;16.10;86.10
49222;DHT22;35047;37.588;-122.048;2024-02-26T10:21:24;16.10;86.30
49222;DHT22;35047;37.588;-122.048;2024-02-26T10:23:51;16.10;86.60
49222;DHT22;35047;37.588;-122.048;2024-02-26T10:26:17;16.00;86.60
49222;DHT22;35047;37.588;-122.048;2024-02-26T10:28:45;16.00;86.90
49222;DHT22;35047;37.588;-122.048;2024-02-26T10:31:14;16.00;87.20
49222;DHT22;35047;37.588;-122.048;2024-02-26T10:33:42;16.00;87.10
49222;DHT22;35047;37.588;-122.048;2024-02-26T10:36:09;16.00;87.10
49222;DHT22;35047;37.588;-122.048;2024-02-26T10:38:36;16.00;87.00
49222;DHT22;35047;37.588;-122.048;2024-02-26T10:41:04;15.90;87.00
49222;DHT22;35047;37.588;-122.048;2024-02-26T10:43:31;15.90;87.00
49222;DHT22;35047;37.588;-122.048;2024-02-26T10:45:57;15.90;87.00
49222;DHT22;35047;37.588;-122.048;2024-02-26T10:48:24;15.90;87.70
49222;DHT22;35047;37.588;-122.048;2024-02-26T10:50:51;15.90;87.20
49222;DHT22;35047;37.588;-122.048;2024-02-26T10:53:21;15.90;87.10
49222;DHT22;35047;37.588;-122.048;2024-02-26T10:56:02;15.80;87.00
49222;DHT22;35047;37.588;-122.048;2024-02-26T10:58:29;15.80;86.80
49222;DHT22;35047;37.588;-122.048;2024-02-26T11:00:57;15.80;86.60
49222;DHT22;35047;37.588;-122.048;2024-02-26T11:03:25;15.80;86.50
49222;DHT22;35047;37.588;-122.048;2024-02-26T11:05:52;15.70;87.30
49222;DHT22;35047;37.588;-122.048;2024-02-26T11:08:19;15.70;88.00
49222;DHT22;35047;37.588;-122.048;2024-02-26T11:10:53;15.70;88.30
49222;DHT22;35047;37.588;-122.048;2024-02-26T11:13:21;15.70;88.10
49222;DHT22;35047;37.588;-122.048;2024-02-26T11:15:52;15.70;88.00
49222;DHT22;35047;37.588;-122.048;2024-02-26T11:18:21;15.70;88.50
49222;DHT22;35047;37.588;-122.048;2024-02-26T11:20:49;15.70;88.60
49222;DHT22;35047;37.588;-122.048;2024-02-26T11:23:17;15.70;88.70
49222;DHT22;35047;37.588;-122.048;2024-02-26T11:25:44;15.70;88.90
49222;DHT22;35047;37.588;-122.048;2024-02-26T11:28:13;15.70;89.20
49222;DHT22;35047;37.588;-122.048;2024-02-26T11:30:44;15.70;89.50
49222;DHT22;35047;37.588;-122.048;2024-02-26T11:33:12;15.70;89.80
49222;DHT22;35047;37.588;-122.048;2024-02-26T11:35:40;15.70;90.00
49222;DHT22;35047;37.588;-122.048;2024-02-26T11:38:07;15.70;89.90
49222;DHT22;35047;37.588;-122.048;2024-02-26T11:40:38;15.70;89.80
49222;DHT22;35047;37.588;-122.048;2024-02-26T11:43:08;15.70;89.90
49222;DHT22;35047;37.588;-122.048;2024-02-26T11:48:16;15.80;90.20
49222;DHT22;35047;37.588;-122.048;2024-02-26T11:50:48;15.80;90.10
49222;DHT22;35047;37.588;-122.048;2024-02-26T11:53:31;15.80;90.10
49222;DHT22;35047;37.588;-122.048;2024-02-26T11:56:20;15.80;90.10
49222;DHT22;35047;37.588;-122.048;2024-02-26T11:58:56;15.70;90.10
49222;DHT22;35047;37.588;-122.048;2024-02-26T12:01:37;15.70;90.20
49222;DHT22;35047;37.588;-122.048;2024-02-26T12:04:26;15.60;90.00
49222;DHT22;35047;37.588;-122.048;2024-02-26T12:07:01;15.60;90.00
49222;DHT22;35047;37.588;-122.048;2024-02-26T12:09:34;15.60;90.00
49222;DHT22;35047;37.588;-122.048;2024-02-26T12:12:13;15.60;89.90
49222;DHT22;35047;37.588;-122.048;2024-02-26T12:14:53;15.60;89.80
49222;DHT22;35047;37.588;-122.048;2024-02-26T12:17:25;15.60;89.80
49222;DHT22;35047;37.588;-122.048;2024-02-26T12:19:52;15.60;89.90
49222;DHT22;35047;37.588;-122.048;2024-02-26T12:22:19;15.60;89.70
49222;DHT22;35047;37.588;-122.048;2024-02-26T12:24:46;15.50;89.30
49222;DHT22;35047;37.588;-122.048;2024-02-26T12:27:13;15.50;89.40
49222;DHT22;35047;37.588;-122.048;2024-02-26T12:29:41;15.50;89.20
49222;DHT22;35047;37.588;-122.048;2024-02-26T12:32:07;15.40;89.20
49222;DHT22;35047;37.588;-122.048;2024-02-26T12:34:34;15.40;89.30
49222;DHT22;35047;37.588;-122.048;2024-02-26T12:37:01;15.40;89.00
49222;DHT22;35047;37.588;-122.048;2024-02-26T12:39:28;15.40;88.90
49222;DHT22;35047;37.588;-122.048;2024-02-26T12:41:59;15.40;88.80
49222;DHT22;35047;37.588;-122.048;2024-02-26T12:44:26;15.40;89.00
49222;DHT22;35047;37.588;-122.048;2024-02-26T12:47:03;15.40;88.90
49222;DHT22;35047;37.588;-122.048;2024-02-26T12:49:30;15.40;88.60
49222;DHT22;35047;37.588;-122.048;2024-02-26T12:51:57;15.40;88.80
49222;DHT22;35047;37.588;-122.048;2024-02-26T12:54:33;15.40;88.70
49222;DHT22;35047;37.588;-122.048;2024-02-26T12:57:04;15.40;88.80
49222;DHT22;35047;37.588;-122.048;2024-02-26T12:59:33;15.40;88.80
49222;DHT22;35047;37.588;-122.048;2024-02-26T13:02:01;15.30;88.90
49222;DHT22;35047;37.588;-122.048;2024-02-26T13:04:29;15.30;88.70
49222;DHT22;35047;37.588;-122.048;2024-02-26T13:06:56;15.30;88.60
49222;DHT22;35047;37.588;-122.048;2024-02-26T13:09:31;15.30;88.70
49222;DHT22;35047;37.588;-122.048;2024-02-26T13:11:58;15.20;88.30
49222;DHT22;35047;37.588;-122.048;2024-02-26T13:14:26;15.20;88.30
49222;DHT22;35047;37.588;-122.048;2024-02-26T13:16:56;15.20;88.50
49222;DHT22;35047;37.588;-122.048;2024-02-26T13:19:23;15.10;88.90
49222;DHT22;35047;37.588;-122.048;2024-02-26T13:21:50;15.10;89.60
49222;DHT22;35047;37.588;-122.048;2024-02-26T13:24:18;15.10;89.70
49222;DHT22;35047;37.588;-122.048;2024-02-26T13:26:45;15.10;89.90
49222;DHT22;35047;37.588;-122.048;2024-02-26T13:29:18;15.10;90.10
49222;DHT22;35047;37.588;-122.048;2024-02-26T13:31:45;15.10;90.20
49222;DHT22;35047;37.588;-122.048;2024-02-26T13:34:26;15.10;90.30
49222;DHT22;35047;37.588;-122.048;2024-02-26T13:36:54;15.10;90.40
49222;DHT22;35047;37.588;-122.048;2024-02-26T13:39:27;15.20;90.40
49222;DHT22;35047;37.588;-122.048;2024-02-26T13:41:54;15.20;90.30
49222;DHT22;35047;37.588;-122.048;2024-02-26T13:44:21;15.20;90.20
49222;DHT22;35047;37.588;-122.048;2024-02-26T13:46:48;15.10;90.10
49222;DHT22;35047;37.588;-122.048;2024-02-26T13:49:17;15.20;90.10
49222;DHT22;35047;37.588;-122.048;2024-02-26T13:51:44;15.20;90.00
49222;DHT22;35047;37.588;-122.048;2024-02-26T13:54:10;15.10;89.80
49222;DHT22;35047;37.588;-122.048;2024-02-26T13:56:37;15.20;89.70
49222;DHT22;35047;37.588;-122.048;2024-02-26T13:59:04;15.10;89.70
49222;DHT22;35047;37.588;-122.048;2024-02-26T14:01:30;15.10;89.60
49222;DHT22;35047;37.588;-122.048;2024-02-26T14:03:59;15.10;89.50
49222;DHT22;35047;37.588;-122.048;2024-02-26T14:06:27;15.10;89.40
49222;DHT22;35047;37.588;-122.048;2024-02-26T14:08:55;15.10;89.40
49222;DHT22;35047;37.588;-122.048;2024-02-26T14:11:21;15.10;89.60
49222;DHT22;35047;37.588;-122.048;2024-02-26T14:13:47;15.10;89.80
49222;DHT22;35047;37.588;-122.048;2024-02-26T14:16:14;15.10;89.70
49222;DHT22;35047;37.588;-122.048;2024-02-26T14:18:41;15.10;89.60
49222;DHT22;35047;37.588;-122.048;2024-02-26T14:21:10;15.10;89.40
49222;DHT22;35047;37.588;-122.048;2024-02-26T14:23:36;15.10;89.30
49222;DHT22;35047;37.588;-122.048;2024-02-26T14:26:03;15.00;89.50
49222;DHT22;35047;37.588;-122.048;2024-02-26T14:28:29;15.00;90.10
49222;DHT22;35047;37.588;-122.048;2024-02-26T14:30:57;15.00;89.80
49222;DHT22;35047;37.588;-122.048;2024-02-26T14:33:24;15.00;89.90
49222;DHT22;35047;37.588;-122.048;2024-02-26T14:35:50;14.90;90.00
49222;DHT22;35047;37.588;-122.048;2024-02-26T14:38:17;14.90;90.20
49222;DHT22;35047;37.588;-122.048;2024-02-26T14:40:43;14.80;90.30
49222;DHT22;35047;37.588;-122.048;2024-02-26T14:43:10;14.80;90.70
49222;DHT22;35047;37.588;-122.048;2024-02-26T14:45:37;14.90;90.70
49222;DHT22;35047;37.588;-122.048;2024-02-26T14:48:04;14.90;90.80
49222;DHT22;35047;37.588;-122.048;2024-02-26T14:50:31;14.90;90.80
49222;DHT22;35047;37.588;-122.048;2024-02-26T14:52:58;14.90;90.70